Time;durP1;ratioP1;P1;durP2;ratioP2;P2;SDS_P1;SDS_P2;PMS_P1;PMS_P2;Temp;Humidity;BMP_temperature;BMP_pressure;BME280_temperature;BME280_humidity;BME280_pressure;Samples;Min_cycle;Max_cycle;Signal;HPM_P1;HPM_P2
2023/10/26 00:02:46;;;;;;;0.60;0.60;;;;;;;12.44;100.00;97837.69;12175671;19;20042;-79
2023/10/26 00:06:48;;;;;;;1.17;0.70;;;;;;;12.46;100.00;97838.19;12199398;19;20064;-79
2023/10/26 00:10:50;;;;;;;1.00;0.60;;;;;;;12.43;100.00;97845.16;12208725;19;20041;-79
2023/10/26 00:14:53;;;;;;;2.30;0.90;;;;;;;12.42;100.00;97845.47;12185464;19;20007;-79
2023/10/26 00:18:54;;;;;;;2.38;0.70;;;;;;;12.44;100.00;97849.56;12209646;19;20023;-79
2023/10/26 00:22:56;;;;;;;0.95;0.60;;;;;;;12.38;100.00;97852.75;12207261;19;20560;-80
2023/10/26 00:26:59;;;;;;;2.00;0.63;;;;;;;12.38;100.00;97858.28;12184017;19;20007;-79
2023/10/26 00:31:01;;;;;;;1.80;0.82;;;;;;;12.27;100.00;97857.66;12195207;19;20006;-80
2023/10/26 00:35:05;;;;;;;1.42;0.82;;;;;;;12.25;100.00;97860.72;12199534;19;20038;-78
2023/10/26 00:39:07;;;;;;;1.77;0.90;;;;;;;12.25;100.00;97869.00;12174574;19;20007;-80
2023/10/26 00:43:18;;;;;;;;;;;;;;;12.20;100.00;97874.66;12199037;19;20106;-80
2023/10/26 00:47:20;;;;;;;2.67;0.88;;;;;;;12.21;100.00;97876.28;12175612;19;20467;-81
2023/10/26 00:51:23;;;;;;;1.20;1.00;;;;;;;12.21;100.00;97875.47;12207494;19;20066;-82
2023/10/26 00:55:26;;;;;;;2.20;1.17;;;;;;;12.21;100.00;97880.97;12220002;19;20056;-83
2023/10/26 00:59:30;;;;;;;1.17;0.90;;;;;;;12.15;100.00;97882.22;12191723;19;20010;-82
2023/10/26 01:03:33;;;;;;;1.77;0.75;;;;;;;12.13;100.00;97882.50;12215158;19;20458;-81
2023/10/26 01:07:36;;;;;;;1.17;0.77;;;;;;;12.16;100.00;97890.19;12214770;19;20011;-81
2023/10/26 01:11:39;;;;;;;1.55;1.13;;;;;;;12.16;100.00;97890.19;12202821;19;20006;-82
2023/10/26 01:15:41;;;;;;;1.45;0.80;;;;;;;12.18;100.00;97887.94;12211520;19;20051;-80
2023/10/26 01:19:46;;;;;;;0.95;0.55;;;;;;;12.18;100.00;97898.97;12207900;19;20023;-81
2023/10/26 01:23:48;;;;;;;1.45;0.70;;;;;;;12.17;100.00;97894.59;12183596;19;20006;-81
2023/10/26 01:27:50;;;;;;;1.95;1.00;;;;;;;12.11;100.00;97912.38;12199925;19;20015;-82
2023/10/26 01:31:52;;;;;;;0.97;0.80;;;;;;;12.09;100.00;97906.34;12203654;19;20017;-81
2023/10/26 01:35:54;;;;;;;1.40;0.80;;;;;;;12.13;100.00;97901.03;12182359;19;20647;-81
2023/10/26 01:39:58;;;;;;;1.15;0.80;;;;;;;12.13;100.00;97903.78;12203719;19;20035;-81
2023/10/26 01:44:00;;;;;;;1.75;0.90;;;;;;;12.10;100.00;97910.72;12202982;19;20010;-80
2023/10/26 01:48:03;;;;;;;4.15;1.02;;;;;;;12.07;100.00;97906.63;12180264;19;20224;-81
2023/10/26 01:52:05;;;;;;;1.55;0.95;;;;;;;12.08;100.00;97900.00;12201574;19;20006;-82
2023/10/26 01:56:07;;;;;;;1.38;0.77;;;;;;;12.03;100.00;97904.81;12205210;19;20087;-81
2023/10/26 02:00:09;;;;;;;1.85;0.90;;;;;;;12.00;100.00;97908.19;12169112;19;20003;-81
2023/10/26 02:04:14;;;;;;;2.25;0.82;;;;;;;12.02;100.00;97904.00;12198323;19;20630;-80
2023/10/26 02:08:16;;;;;;;1.80;1.25;;;;;;;12.04;100.00;97903.69;12175661;19;20956;-80
2023/10/26 02:12:18;;;;;;;1.23;1.00;;;;;;;12.01;100.00;97907.84;12195411;19;20034;-80
2023/10/26 02:16:20;;;;;;;1.52;1.10;;;;;;;12.04;100.00;97906.44;12199545;19;20259;-80
2023/10/26 02:20:22;;;;;;;1.63;1.02;;;;;;;12.01;100.00;97910.63;12173298;19;20026;-80
2023/10/26 02:24:24;;;;;;;1.48;1.02;;;;;;;12.01;100.00;97907.03;12196329;19;20397;-80
2023/10/26 02:28:25;;;;;;;2.40;1.13;;;;;;;11.98;100.00;97919.50;12191549;19;20003;-80
2023/10/26 02:32:28;;;;;;;3.37;1.40;;;;;;;12.01;100.00;97909.81;12172769;19;20031;-80
2023/10/26 02:36:30;;;;;;;1.58;0.90;;;;;;;12.03;100.00;97908.38;12201561;19;20704;-80
2023/10/26 02:40:35;;;;;;;2.23;1.20;;;;;;;12.01;100.00;97915.31;12191349;19;20070;-80
2023/10/26 02:44:37;;;;;;;2.80;1.05;;;;;;;12.00;100.00;97914.50;12171576;19;20264;-80
2023/10/26 02:48:39;;;;;;;1.58;0.90;;;;;;;11.97;100.00;97917.88;12194466;19;20009;-80
2023/10/26 02:52:42;;;;;;;3.53;1.00;;;;;;;11.98;100.00;97914.00;12189676;19;20033;-80
2023/10/26 02:56:44;;;;;;;1.38;0.95;;;;;;;12.01;100.00;97924.41;12170795;19;20010;-80
2023/10/26 03:00:45;;;;;;;1.02;0.90;;;;;;;12.04;100.00;97921.06;12184878;19;20011;-80
2023/10/26 03:04:48;;;;;;;2.63;1.52;;;;;;;12.03;100.00;97924.13;12205401;19;20013;-80
2023/10/26 03:08:50;;;;;;;1.43;1.03;;;;;;;11.97;100.00;97914.31;12188175;19;20002;-80
2023/10/26 03:12:54;;;;;;;3.00;1.38;;;;;;;11.89;100.00;97921.34;12196450;19;20672;-80
2023/10/26 03:16:56;;;;;;;2.70;1.35;;;;;;;11.78;100.00;97920.69;12191772;19;20378;-79
2023/10/26 03:20:59;;;;;;;2.03;1.35;;;;;;;11.74;100.00;97922.41;12163809;19;20035;-80
2023/10/26 03:25:01;;;;;;;1.70;1.10;;;;;;;11.74;100.00;97927.13;12202389;19;20103;-80
2023/10/26 03:29:04;;;;;;;1.95;1.20;;;;;;;11.72;100.00;97926.59;12202138;19;20130;-80
2023/10/26 03:33:06;;;;;;;2.20;1.20;;;;;;;11.67;100.00;97922.00;12175836;19;20417;-80
2023/10/26 03:37:08;;;;;;;1.95;1.40;;;;;;;11.66;100.00;97920.38;12187828;19;20533;-80
2023/10/26 03:41:10;;;;;;;1.70;1.10;;;;;;;11.60;100.00;97916.88;12170256;19;20015;-80
2023/10/26 03:45:12;;;;;;;1.52;1.00;;;;;;;11.51;100.00;97910.44;12189557;19;20885;-81
2023/10/26 03:49:14;;;;;;;1.10;0.87;;;;;;;11.43;100.00;97915.81;12197534;19;20102;-80
2023/10/26 03:53:16;;;;;;;3.33;1.20;;;;;;;11.36;100.00;97913.41;12171451;19;20019;-79
2023/10/26 03:57:18;;;;;;;0.80;0.70;;;;;;;11.33;100.00;97908.50;12187355;19;20010;-80
2023/10/26 04:01:20;;;;;;;2.00;1.20;;;;;;;11.25;100.00;97896.25;12184110;19;21815;-80
2023/10/26 04:05:22;;;;;;;2.33;1.35;;;;;;;11.13;100.00;97917.94;12168297;19;21492;-80
2023/10/26 04:09:23;;;;;;;5.32;1.27;;;;;;;11.02;100.00;97919.22;12187931;19;20007;-80
2023/10/26 04:13:30;;;;;;;2.10;1.00;;;;;;;10.91;100.00;97913.03;12186202;19;20110;-80
2023/10/26 04:17:34;;;;;;;1.65;1.00;;;;;;;10.82;100.00;97923.91;12167554;19;20019;-80
2023/10/26 04:21:36;;;;;;;3.83;1.10;;;;;;;10.79;100.00;97918.16;12190505;19;20022;-81
2023/10/26 04:25:38;;;;;;;2.40;1.35;;;;;;;10.73;100.00;97918.22;12190901;19;20390;-80
2023/10/26 04:29:55;;;;;;;1.63;1.13;;;;;;;10.72;100.00;97926.81;12156052;19;20035;-80
2023/10/26 04:33:58;;;;;;;2.40;1.42;;;;;;;10.66;100.00;97930.75;12193662;19;20002;-79
2023/10/26 04:38:00;;;;;;;1.90;1.48;;;;;;;10.65;100.00;97940.13;12186314;19;20015;-80
2023/10/26 04:42:03;;;;;;;2.80;1.63;;;;;;;10.68;100.00;97939.53;12161446;19;20002;-79
2023/10/26 04:46:05;;;;;;;2.55;1.33;;;;;;;10.75;100.00;97940.00;12184343;19;20014;-79
2023/10/26 04:50:08;;;;;;;2.95;1.73;;;;;;;10.83;100.00;97928.31;12179491;19;20010;-79
2023/10/26 04:54:10;;;;;;;3.03;1.67;;;;;;;10.93;100.00;97922.63;12167474;19;20011;-79
2023/10/26 04:58:12;;;;;;;3.20;1.70;;;;;;;11.03;100.00;97923.59;12190207;19;20039;-79
2023/10/26 05:02:16;;;;;;;2.58;1.52;;;;;;;11.03;100.00;97912.56;12176285;19;20002;-79
2023/10/26 05:06:18;;;;;;;3.17;1.63;;;;;;;11.12;100.00;97913.53;12197883;19;20014;-79
2023/10/26 05:10:21;;;;;;;;;;;;;;;11.13;100.00;97913.25;12194661;19;20016;-80
2023/10/26 05:14:23;;;;;;;2.38;1.70;;;;;;;11.16;100.00;97911.84;12178912;19;19939;-80
2023/10/26 05:18:25;;;;;;;4.60;2.33;;;;;;;11.19;100.00;97911.22;12199832;19;20006;-79
2023/10/26 05:22:27;;;;;;;3.20;1.77;;;;;;;11.22;100.00;97918.91;12199453;19;20143;-81
2023/10/26 05:26:31;;;;;;;;;;;;;;;11.22;100.00;97907.06;12177175;19;20004;-79
2023/10/26 05:30:34;;;;;;;4.38;2.00;;;;;;;11.23;100.00;97912.25;12197143;19;21258;-80
2023/10/26 05:34:36;;;;;;;3.53;1.88;;;;;;;11.24;100.00;97913.06;12194607;19;20007;-80
2023/10/26 05:38:38;;;;;;;2.20;1.60;;;;;;;11.20;100.00;97915.63;12171127;19;20014;-79
2023/10/26 05:42:40;;;;;;;3.75;2.05;;;;;;;11.20;100.00;97915.63;12193853;19;20010;-79
2023/10/26 05:46:42;;;;;;;3.05;1.73;;;;;;;11.17;100.00;97903.25;12193868;19;20010;-80
2023/10/26 05:50:46;;;;;;;3.17;1.95;;;;;;;11.17;100.00;97902.44;12174213;19;20020;-81
2023/10/26 05:54:47;;;;;;;3.33;1.80;;;;;;;11.13;100.00;97901.41;12198638;19;20002;-80
2023/10/26 05:58:50;;;;;;;5.25;2.35;;;;;;;11.13;100.00;97907.72;12196631;19;20014;-80
2023/10/26 06:02:52;;;;;;;3.33;2.10;;;;;;;11.12;100.00;97905.25;12177564;19;20002;-80
2023/10/26 06:06:54;;;;;;;3.73;1.83;;;;;;;11.07;100.00;97899.84;12198268;19;20007;-80
2023/10/26 06:10:57;;;;;;;3.63;2.05;;;;;;;11.02;100.00;97897.97;12199534;19;20018;-80
2023/10/26 06:15:00;;;;;;;4.75;1.90;;;;;;;11.03;100.00;97891.34;12188716;19;20011;-80
2023/10/26 06:19:01;;;;;;;3.85;2.25;;;;;;;10.95;100.00;97906.63;12194733;19;20006;-80
2023/10/26 06:23:04;;;;;;;3.88;1.95;;;;;;;10.87;100.00;97901.78;12204261;19;20488;-80
2023/10/26 06:27:07;;;;;;;3.60;2.53;;;;;;;10.78;100.00;97913.78;12172118;19;20431;-80
2023/10/26 06:31:16;;;;;;;4.93;2.30;;;;;;;10.66;100.00;97904.03;12192082;19;20058;-79
2023/10/26 06:35:18;;;;;;;3.17;2.10;;;;;;;10.56;100.00;97925.38;12173201;19;20018;-80
2023/10/26 06:39:20;;;;;;;3.10;1.90;;;;;;;10.48;100.00;97927.66;12197399;19;20006;-80
2023/10/26 06:43:25;;;;;;;6.50;2.53;;;;;;;10.46;100.00;97927.13;12189370;19;20030;-79
2023/10/26 06:47:27;;;;;;;3.78;2.15;;;;;;;10.55;100.00;97926.47;12173187;19;20010;-79
2023/10/26 06:51:30;;;;;;;4.37;2.50;;;;;;;10.66;100.00;97939.81;12190807;19;20007;-81
2023/10/26 06:55:35;;;;;;;4.95;2.83;;;;;;;10.78;100.00;97931.13;12203335;19;20010;-80
2023/10/26 06:59:37;;;;;;;6.43;2.50;;;;;;;10.93;100.00;97936.41;12177348;19;20003;-81
2023/10/26 07:03:39;;;;;;;3.90;2.37;;;;;;;11.12;100.00;97930.06;12195098;19;20006;-80
2023/10/26 07:07:41;;;;;;;2.97;1.75;;;;;;;11.25;100.00;97925.75;12189471;19;20277;-79
2023/10/26 07:11:43;;;;;;;3.78;2.10;;;;;;;11.43;100.00;97927.66;12164424;19;20014;-80
2023/10/26 07:15:47;;;;;;;4.63;2.35;;;;;;;11.58;100.00;97921.88;12187997;19;20014;-79
2023/10/26 07:19:49;;;;;;;4.68;2.30;;;;;;;11.70;100.00;97931.63;12159085;19;20074;-79
2023/10/26 07:23:51;;;;;;;4.82;2.40;;;;;;;11.83;100.00;97914.25;12170580;19;19999;-78
2023/10/26 07:27:53;;;;;;;2.87;1.70;;;;;;;11.96;100.00;97912.69;12184953;19;20017;-78
2023/10/26 07:31:55;;;;;;;4.47;2.30;;;;;;;12.04;100.00;97921.06;12189692;19;20047;-78
2023/10/26 07:35:58;;;;;;;3.63;2.38;;;;;;;12.07;100.00;97920.44;12168616;19;20078;-78
2023/10/26 07:40:01;;;;;;;5.37;2.20;;;;;;;12.01;100.00;97904.28;12191328;19;20044;-79
2023/10/26 07:44:23;;;;;;;5.78;2.67;;;;;;;12.16;100.00;97900.41;12172915;19;20007;-81
2023/10/26 07:48:25;;;;;;;5.05;2.67;;;;;;;12.25;100.00;97893.84;12187756;19;20011;-80
2023/10/26 07:52:27;;;;;;;3.27;1.90;;;;;;;12.47;100.00;97889.56;12193849;19;20007;-79
2023/10/26 07:56:30;;;;;;;7.00;2.40;;;;;;;12.51;100.00;97879.50;12170104;19;20030;-78
2023/10/26 08:00:33;;;;;;;3.20;1.80;;;;;;;12.56;100.00;97882.19;12189118;19;20074;-79
2023/10/26 08:04:35;;;;;;;4.72;2.17;;;;;;;12.54;100.00;97884.41;12189548;19;20018;-78
2023/10/26 08:08:37;;;;;;;3.17;2.30;;;;;;;12.57;100.00;97889.31;12168170;19;20532;-80
2023/10/26 08:12:39;;;;;;;5.55;2.58;;;;;;;12.70;100.00;97894.03;12185266;19;20018;-79
2023/10/26 08:16:42;;;;;;;4.07;2.23;;;;;;;12.68;100.00;97887.16;12186733;19;20017;-78
2023/10/26 08:20:51;;;;;;;4.30;2.28;;;;;;;12.54;100.00;97889.94;12167041;19;20022;-77
2023/10/26 08:24:53;;;;;;;4.65;2.25;;;;;;;12.56;100.00;97892.41;12190520;19;20052;-78
2023/10/26 08:28:55;;;;;;;5.60;2.10;;;;;;;12.49;100.00;97892.81;12188552;19;20010;-79
2023/10/26 08:33:14;;;;;;;4.28;2.20;;;;;;;12.43;100.00;97888.53;12177583;19;20013;-79
2023/10/26 08:37:17;;;;;;;3.55;1.90;;;;;;;12.58;100.00;97890.94;12196405;19;20010;-79
2023/10/26 08:41:21;;;;;;;;;;;;;;;12.76;100.00;97897.50;12177910;19;20473;-79
2023/10/26 08:45:24;;;;;;;5.32;2.25;;;;;;;13.01;100.00;97909.91;12200659;19;19919;-78
2023/10/26 08:49:27;;;;;;;2.65;1.65;;;;;;;13.35;100.00;97883.66;12198652;19;20107;-79
2023/10/26 08:53:34;;;;;;;4.20;1.80;;;;;;;13.64;100.00;97897.84;12199841;19;20024;-79
2023/10/26 08:57:51;;;;;;;3.47;2.00;;;;;;;13.70;100.00;97903.25;12217785;19;20014;-79
2023/10/26 09:01:55;;;;;;;3.58;1.60;;;;;;;13.84;100.00;97901.22;12197923;19;20011;-78
2023/10/26 09:05:57;;;;;;;4.75;1.80;;;;;;;13.95;100.00;97913.66;12187930;19;19999;-78
2023/10/26 09:10:00;;;;;;;4.50;1.50;;;;;;;14.05;100.00;97921.69;12203608;19;20655;-79
2023/10/26 09:14:21;;;;;;;2.87;1.60;;;;;;;14.16;100.00;97935.25;12202560;19;20006;-78
2023/10/26 09:18:24;;;;;;;3.58;2.03;;;;;;;14.14;100.00;97947.47;12228606;19;20252;-79
2023/10/26 09:22:39;;;;;;;3.17;1.75;;;;;;;14.05;100.00;97956.88;12223550;19;20006;-79
2023/10/26 09:26:41;;;;;;;5.00;1.80;;;;;;;13.98;100.00;97960.09;12203422;19;20014;-80
2023/10/26 09:30:43;;;;;;;4.85;2.10;;;;;;;13.94;100.00;97980.44;12214829;19;20011;-79
2023/10/26 09:34:45;;;;;;;3.10;1.83;;;;;;;13.86;100.00;97985.59;12220448;19;20011;-80
2023/10/26 09:38:48;;;;;;;5.40;2.00;;;;;;;13.74;100.00;97971.53;12191362;19;20010;-80
2023/10/26 09:42:52;;;;;;;5.00;2.20;;;;;;;13.81;100.00;97969.13;12214258;19;20041;-80
2023/10/26 09:46:54;;;;;;;;;;;;;;;13.81;100.00;97969.13;12225493;19;20014;-80
2023/10/26 09:51:00;;;;;;;3.70;1.93;;;;;;;13.84;100.00;97962.13;12201633;19;20265;-80
2023/10/26 09:55:06;;;;;;;4.35;1.80;;;;;;;13.86;100.00;97954.31;12218683;19;20023;-78
2023/10/26 09:59:10;;;;;;;2.95;1.63;;;;;;;13.82;100.00;97945.81;12195518;19;20018;-78
2023/10/26 10:03:15;;;;;;;2.90;1.80;;;;;;;13.83;100.00;97935.56;12222561;19;20281;-80
2023/10/26 10:07:43;;;;;;;3.05;2.05;;;;;;;13.95;100.00;97933.06;12218843;19;20036;-78
2023/10/26 10:12:08;;;;;;;1.63;1.25;;;;;;;13.95;100.00;97932.22;12194077;19;20090;-78
2023/10/26 10:16:34;;;;;;;9.07;2.80;;;;;;;13.99;100.00;97920.19;12216136;19;20012;-79
2023/10/26 10:20:40;;;;;;;3.58;1.40;;;;;;;14.02;100.00;97927.06;12195787;19;20096;-79
2023/10/26 10:24:43;;;;;;;4.22;1.92;;;;;;;13.97;100.00;97914.16;12217929;19;20006;-80
2023/10/26 10:28:50;;;;;;;2.22;1.40;;;;;;;14.09;100.00;97921.84;12214592;19;20027;-79
2023/10/26 10:32:56;;;;;;;2.15;1.38;;;;;;;14.10;100.00;97929.88;12189040;19;20521;-79
2023/10/26 10:37:17;;;;;;;2.67;1.55;;;;;;;14.11;100.00;97927.91;12213347;19;20012;-79
2023/10/26 10:41:21;;;;;;;3.23;1.40;;;;;;;14.11;100.00;97914.88;12194257;19;20017;-80
2023/10/26 10:45:23;;;;;;;3.67;1.85;;;;;;;14.17;100.00;97903.66;12218072;19;20360;-79
2023/10/26 10:49:25;;;;;;;3.60;1.80;;;;;;;14.22;100.00;97906.25;12214080;19;20014;-80
2023/10/26 10:53:29;;;;;;;4.03;1.80;;;;;;;14.26;100.00;97890.66;12195299;19;20014;-80
2023/10/26 10:57:31;;;;;;;4.03;1.80;;;;;;;14.22;100.00;97887.72;12217446;19;20014;-79
2023/10/26 11:01:33;;;;;;;2.67;1.63;;;;;;;14.25;100.00;97883.50;12211167;19;20481;-80
2023/10/26 11:05:40;;;;;;;3.00;1.70;;;;;;;14.36;100.00;97868.19;12194114;19;20006;-78
2023/10/26 11:09:42;;;;;;;3.03;1.63;;;;;;;14.48;100.00;97881.41;12222050;19;20010;-78
2023/10/26 11:13:44;;;;;;;4.50;1.70;;;;;;;14.66;100.00;97885.88;12232444;19;20007;-79
2023/10/26 11:17:47;;;;;;;3.83;2.00;;;;;;;14.78;100.00;97899.09;12214981;19;20071;-79
2023/10/26 11:21:55;;;;;;;3.55;1.90;;;;;;;14.86;100.00;97878.91;12223179;19;20063;-79
2023/10/26 11:26:14;;;;;;;2.93;1.83;;;;;;;15.02;100.00;97882.84;12215038;19;20335;-79
2023/10/26 11:30:16;;;;;;;4.10;2.53;;;;;;;15.07;100.00;97867.16;12211465;19;20013;-79
2023/10/26 11:34:18;;;;;;;7.00;3.97;;;;;;;15.19;100.00;97859.00;12213478;19;20007;-79
2023/10/26 11:38:21;;;;;;;5.20;3.10;;;;;;;15.18;100.00;97841.53;12192161;19;20112;-79
2023/10/26 11:42:49;;;;;;;6.18;4.07;;;;;;;15.09;100.00;97848.25;12211919;19;20031;-79
2023/10/26 11:46:59;;;;;;;6.10;3.03;;;;;;;15.11;100.00;97837.63;12213768;19;20010;-79
2023/10/26 11:51:06;;;;;;;5.75;3.35;;;;;;;15.01;100.00;97831.25;12188894;19;20032;-79
2023/10/26 11:55:10;;;;;;;6.45;3.42;;;;;;;14.84;100.00;97834.03;12217895;19;20026;-80
2023/10/26 11:59:12;;;;;;;7.85;3.60;;;;;;;14.81;100.00;97831.91;12194085;19;20023;-80
2023/10/26 12:03:15;;;;;;;6.43;4.00;;;;;;;14.82;100.00;97833.56;12219139;19;20014;-79
2023/10/26 12:07:17;;;;;;;6.27;3.30;;;;;;;14.85;100.00;97827.38;12211310;19;20010;-79
2023/10/26 12:11:18;;;;;;;6.75;3.75;;;;;;;14.99;100.00;97816.09;12192147;19;20095;-79
2023/10/26 12:15:23;;;;;;;6.70;3.10;;;;;;;15.17;100.00;97812.16;12211151;19;20028;-80
2023/10/26 12:19:25;;;;;;;5.75;3.50;;;;;;;15.36;100.00;97800.69;12209714;19;20014;-79
2023/10/26 12:23:28;;;;;;;5.32;3.10;;;;;;;15.47;100.00;97790.06;12190598;19;20006;-80
2023/10/26 12:27:31;;;;;;;5.87;3.00;;;;;;;15.51;100.00;97771.59;12210296;19;20014;-79
2023/10/26 12:31:53;;;;;;;4.67;2.50;;;;;;;15.57;100.00;97763.91;12206027;19;20267;-78
2023/10/26 12:35:55;;;;;;;5.05;2.47;;;;;;;15.63;100.00;97776.44;12183843;19;20435;-80
2023/10/26 12:39:57;;;;;;;6.95;2.42;;;;;;;15.64;100.00;97794.72;12212003;19;20014;-79
2023/10/26 12:43:59;;;;;;;6.45;2.92;;;;;;;15.63;100.00;97784.78;12211101;19;20011;-78
2023/10/26 12:48:01;;;;;;;7.40;2.92;;;;;;;15.52;100.00;97775.19;12184243;19;20011;-79
2023/10/26 12:52:04;;;;;;;3.13;2.33;;;;;;;15.39;100.00;97794.50;12207539;19;20076;-79
2023/10/26 12:56:09;;;;;;;4.32;2.88;;;;;;;15.22;100.00;97786.19;12187294;19;20007;-79
2023/10/26 13:00:14;;;;;;;6.25;2.70;;;;;;;15.02;100.00;97783.00;12205684;19;20534;-80
2023/10/26 13:04:17;;;;;;;7.38;2.83;;;;;;;14.84;100.00;97769.44;12208326;19;20066;-79
2023/10/26 13:08:20;;;;;;;3.70;2.60;;;;;;;14.76;100.00;97762.78;12187444;19;20015;-79
2023/10/26 13:12:22;;;;;;;5.73;2.57;;;;;;;14.68;100.00;97760.81;12205174;19;20006;-79
2023/10/26 13:16:24;;;;;;;4.75;2.10;;;;;;;14.58;100.00;97757.25;12216040;19;20017;-79
2023/10/26 13:20:26;;;;;;;4.37;2.10;;;;;;;14.57;100.00;97747.31;12193745;19;20011;-79
2023/10/26 13:24:28;;;;;;;2.38;0.98;;;;;;;14.52;100.00;97741.91;12221148;19;20007;-79
2023/10/26 13:28:30;;;;;;;1.77;1.07;;;;;;;14.52;100.00;97730.84;12216180;19;20031;-78
2023/10/26 13:32:32;;;;;;;2.53;1.15;;;;;;;14.56;100.00;97725.44;12192902;19;19999;-79
2023/10/26 13:36:36;;;;;;;1.23;0.85;;;;;;;14.70;100.00;97720.56;12218082;19;20021;-79
2023/10/26 13:40:43;;;;;;;2.65;1.00;;;;;;;14.85;100.00;97721.19;12220158;19;20007;-79
2023/10/26 13:44:46;;;;;;;3.80;0.88;;;;;;;14.98;100.00;97718.22;12195367;19;20356;-79
2023/10/26 13:48:48;;;;;;;2.22;0.98;;;;;;;15.14;100.00;97703.81;12216582;19;20030;-78
2023/10/26 13:52:50;;;;;;;3.70;1.10;;;;;;;15.03;100.00;97704.16;12218598;19;20002;-79
2023/10/26 13:56:54;;;;;;;2.40;1.02;;;;;;;14.88;100.00;97710.25;12196678;19;20010;-79
2023/10/26 14:00:58;;;;;;;2.38;1.00;;;;;;;14.82;100.00;97694.94;12219168;19;20023;-78
2023/10/26 14:05:00;;;;;;;3.23;1.30;;;;;;;14.78;100.00;97705.88;12222710;19;20017;-79
2023/10/26 14:09:05;;;;;;;3.80;1.50;;;;;;;14.74;100.00;97706.84;12203241;19;20761;-79
2023/10/26 14:13:09;;;;;;;4.15;1.55;;;;;;;14.63;100.00;97703.59;12220437;19;20488;-79
2023/10/26 14:17:11;;;;;;;4.80;2.23;;;;;;;14.55;100.00;97699.69;12196501;19;20367;-78
2023/10/26 14:21:14;;;;;;;;;;;;;;;14.51;100.00;97692.31;12218245;19;20536;-78
2023/10/26 14:25:16;;;;;;;4.55;2.28;;;;;;;14.47;100.00;97700.47;12212130;19;19911;-78
2023/10/26 14:29:18;;;;;;;5.90;3.65;;;;;;;14.39;100.00;97694.94;12193701;19;20657;-79
2023/10/26 14:33:20;;;;;;;4.07;2.65;;;;;;;14.32;100.00;97695.44;12212117;19;20031;-79
2023/10/26 14:37:22;;;;;;;6.97;3.15;;;;;;;14.28;100.00;97686.97;12212184;19;20006;-80
2023/10/26 14:41:23;;;;;;;6.82;4.30;;;;;;;14.23;100.00;97689.09;12194506;19;20480;-80
2023/10/26 14:45:26;;;;;;;5.73;3.90;;;;;;;14.19;100.00;97683.38;12214459;19;20014;-78
2023/10/26 14:49:27;;;;;;;7.75;4.05;;;;;;;14.14;100.00;97678.81;12211372;19;20014;-80
2023/10/26 14:53:31;;;;;;;10.27;5.03;;;;;;;14.10;100.00;97672.31;12180157;19;20018;-80
2023/10/26 14:57:32;;;;;;;10.32;5.15;;;;;;;14.06;100.00;97667.72;12212801;19;20031;-80
2023/10/26 15:01:35;;;;;;;9.52;5.43;;;;;;;14.04;100.00;97662.53;12205052;19;20023;-79
2023/10/26 15:05:37;;;;;;;9.70;4.75;;;;;;;14.07;100.00;97658.28;12189090;19;20106;-79
2023/10/26 15:09:40;;;;;;;9.63;5.50;;;;;;;14.14;100.00;97653.06;12207932;19;20018;-79
2023/10/26 15:14:02;;;;;;;8.00;5.18;;;;;;;14.19;100.00;97649.31;12199151;19;20125;-80
2023/10/26 15:18:04;;;;;;;10.68;5.50;;;;;;;14.28;100.00;97659.25;12206101;19;20011;-79
2023/10/26 15:22:06;;;;;;;8.83;5.10;;;;;;;14.33;100.00;97655.50;12205440;19;20022;-79
2023/10/26 15:26:08;;;;;;;10.60;5.55;;;;;;;14.30;100.00;97659.72;12184381;19;20260;-79
2023/10/26 15:30:12;;;;;;;9.13;5.10;;;;;;;14.33;100.00;97655.50;12203378;19;20070;-79
2023/10/26 15:34:15;;;;;;;12.88;4.75;;;;;;;14.37;100.00;97648.19;12215079;19;20006;-80
2023/10/26 15:38:17;;;;;;;9.77;5.10;;;;;;;14.38;100.00;97651.75;12179523;19;20491;-80
2023/10/26 15:42:19;;;;;;;8.95;5.30;;;;;;;14.39;100.00;97645.88;12204409;19;20003;-80
2023/10/26 15:46:22;;;;;;;10.43;5.10;;;;;;;14.38;100.00;97647.03;12206005;19;20006;-80
2023/10/26 15:50:24;;;;;;;12.73;5.03;;;;;;;14.41;100.00;97651.91;12186174;19;20026;-81
2023/10/26 15:54:26;;;;;;;12.75;5.50;;;;;;;14.42;100.00;97645.22;12207474;19;20256;-81
2023/10/26 15:58:28;;;;;;;9.50;5.43;;;;;;;14.35;100.00;97640.19;12208998;19;20011;-79
2023/10/26 16:02:30;;;;;;;16.90;5.33;;;;;;;14.28;100.00;97642.66;12183012;19;20022;-79
2023/10/26 16:06:32;;;;;;;11.77;5.25;;;;;;;14.27;100.00;97651.25;12206575;19;20258;-80
2023/10/26 16:10:34;;;;;;;13.03;5.50;;;;;;;14.31;100.00;97649.50;12202352;19;20030;-79
2023/10/26 16:14:36;;;;;;;10.68;5.78;;;;;;;14.31;100.00;97647.53;12172444;19;20003;-79
2023/10/26 16:18:38;;;;;;;15.02;5.75;;;;;;;14.31;100.00;97649.50;12193970;19;20010;-79
2023/10/26 16:22:42;;;;;;;13.23;5.68;;;;;;;14.29;100.00;97649.00;12196379;19;20486;-80
2023/10/26 16:26:44;;;;;;;11.50;5.72;;;;;;;14.28;100.00;97645.41;12170176;19;20014;-80
2023/10/26 16:30:45;;;;;;;12.10;5.60;;;;;;;14.30;100.00;97637.56;12208702;19;20031;-79
2023/10/26 16:34:47;;;;;;;16.80;5.37;;;;;;;14.29;100.00;97635.13;12205247;19;20006;-79
2023/10/26 16:38:50;;;;;;;9.68;5.22;;;;;;;14.28;100.00;97639.06;12202617;19;20013;-79
2023/10/26 16:42:51;;;;;;;14.57;5.53;;;;;;;14.29;100.00;97635.94;12246216;19;20061;-79
2023/10/26 16:46:53;;;;;;;12.73;5.93;;;;;;;14.30;100.00;97632.03;12242556;19;20290;-79
2023/10/26 16:50:56;;;;;;;7.60;3.88;;;;;;;14.23;100.00;97630.91;12228695;19;19994;-80
2023/10/26 16:54:58;;;;;;;6.35;3.10;;;;;;;14.17;100.00;97643.31;12261283;19;20035;-79
2023/10/26 16:59:00;;;;;;;8.48;3.63;;;;;;;14.13;100.00;97643.94;12259911;19;20002;-80
2023/10/26 17:03:02;;;;;;;10.25;3.78;;;;;;;14.12;100.00;97642.31;12237915;19;20013;-79
2023/10/26 17:07:05;;;;;;;18.27;7.05;;;;;;;14.16;100.00;97638.88;12261534;19;20059;-79
2023/10/26 17:11:08;;;;;;;13.05;5.78;;;;;;;14.16;100.00;97639.72;12233855;19;20133;-79
2023/10/26 17:15:10;;;;;;;10.35;4.30;;;;;;;14.13;100.00;97654.22;12238688;19;20080;-78
2023/10/26 17:19:14;;;;;;;9.63;3.58;;;;;;;14.11;100.00;97660.06;12218153;19;19999;-78
2023/10/26 17:23:21;;;;;;;5.93;2.50;;;;;;;14.09;100.00;97661.53;12200676;19;20018;-79
2023/10/26 17:27:22;;;;;;;8.45;2.58;;;;;;;14.02;100.00;97655.69;12221242;19;20046;-78
2023/10/26 17:31:25;;;;;;;6.82;2.45;;;;;;;14.03;100.00;97662.84;12220359;19;20037;-78
2023/10/26 17:35:28;;;;;;;8.25;3.28;;;;;;;14.03;100.00;97655.34;12196957;19;20010;-78
2023/10/26 17:39:30;;;;;;;7.45;3.58;;;;;;;13.97;100.00;97661.38;12210522;19;20019;-78
2023/10/26 17:43:32;;;;;;;4.85;2.72;;;;;;;13.91;100.00;97661.50;12212842;19;20773;-77
2023/10/26 17:47:36;;;;;;;7.00;3.40;;;;;;;13.86;100.00;97669.16;12191459;19;20006;-78
2023/10/26 17:51:40;;;;;;;7.55;3.72;;;;;;;13.86;100.00;97675.53;12212373;19;20268;-78
2023/10/26 17:55:43;;;;;;;7.90;3.53;;;;;;;13.94;100.00;97684.97;12214456;19;20011;-77
2023/10/26 17:59:45;;;;;;;8.02;3.42;;;;;;;13.90;100.00;97692.31;12181554;19;20135;-77
2023/10/26 18:03:47;;;;;;;11.18;4.78;;;;;;;13.85;100.00;97696.03;12198888;19;20010;-76
2023/10/26 18:07:49;;;;;;;9.63;4.15;;;;;;;13.78;100.00;97704.00;12201463;19;20006;-77
2023/10/26 18:11:51;;;;;;;10.05;4.15;;;;;;;13.75;100.00;97709.38;12181332;19;20121;-78
2023/10/26 18:15:59;;;;;;;11.80;4.15;;;;;;;13.71;100.00;97691.75;12201555;19;20901;-79
2023/10/26 18:20:00;;;;;;;7.35;3.67;;;;;;;13.72;100.00;97697.00;12190034;19;20493;-79
2023/10/26 18:24:03;;;;;;;12.17;4.90;;;;;;;13.68;100.00;97691.28;12182910;19;20003;-78
2023/10/26 18:28:04;;;;;;;12.47;4.73;;;;;;;13.62;100.00;97695.34;12207032;19;20044;-78
2023/10/26 18:32:08;;;;;;;14.13;6.55;;;;;;;13.62;100.00;97692.59;12178284;19;20394;-78
2023/10/26 18:36:12;;;;;;;13.93;6.43;;;;;;;13.66;100.00;97689.97;12200753;19;20074;-77
2023/10/26 18:40:15;;;;;;;11.02;5.47;;;;;;;13.66;100.00;97692.75;12196486;19;20014;-78